Time;durP1;ratioP1;P1;durP2;ratioP2;P2;SDS_P1;SDS_P2;PMS_P1;PMS_P2;Temp;Humidity;BMP_temperature;BMP_pressure;BME280_temperature;BME280_humidity;BME280_pressure;Samples;Min_cycle;Max_cycle;Signal;HPM_P1;HPM_P2
2023/01/08 00:01:34;;;;;;;10.88;3.85;;;;;;;4.17;100.00;92724.19;5038726;28;20088;-82
2023/01/08 00:04:01;;;;;;;6.85;3.75;;;;;;;4.15;100.00;92723.66;5039443;28;20037;-82
2023/01/08 00:06:26;;;;;;;6.60;4.13;;;;;;;4.10;100.00;92716.59;5038462;28;20079;-83
2023/01/08 00:08:52;;;;;;;9.48;4.03;;;;;;;4.06;100.00;92715.50;5038195;28;20041;-83
2023/01/08 00:11:18;;;;;;;7.30;4.22;;;;;;;4.02;100.00;92708.47;5039165;28;20029;-82
2023/01/08 00:13:43;;;;;;;8.60;4.00;;;;;;;4.00;100.00;92700.13;5004658;28;20034;-83
2023/01/08 00:16:15;;;;;;;7.35;4.05;;;;;;;4.00;100.00;92703.50;5038968;28;20169;-83
2023/01/08 00:18:42;;;;;;;7.80;3.83;;;;;;;3.98;100.00;92702.97;5052203;28;20037;-80
2023/01/08 00:21:08;;;;;;;7.80;4.15;;;;;;;3.97;100.00;92694.41;5052263;28;20095;-81
2023/01/08 00:23:34;;;;;;;6.75;3.78;;;;;;;3.97;100.00;92702.19;5049963;28;20037;-83
2023/01/08 00:26:05;;;;;;;8.52;4.07;;;;;;;3.96;100.00;92698.03;5041130;28;20091;-81
2023/01/08 00:28:31;;;;;;;6.80;4.05;;;;;;;3.96;100.00;92698.03;5040716;28;20037;-83
2023/01/08 00:30:57;;;;;;;18.17;8.30;;;;;;;4.05;100.00;92695.00;5039566;28;20036;-83
2023/01/08 00:33:23;;;;;;;16.20;9.27;;;;;;;4.00;100.00;92692.38;5039540;28;20037;-83
2023/01/08 00:35:50;;;;;;;14.45;8.05;;;;;;;3.85;100.00;92682.59;5037903;28;20038;-83
2023/01/08 00:38:16;;;;;;;14.30;8.18;;;;;;;3.81;100.00;92679.72;5037590;28;20065;-82
2023/01/08 00:40:41;;;;;;;15.40;7.25;;;;;;;3.79;100.00;92689.53;5039806;28;20087;-84
2023/01/08 00:43:07;;;;;;;13.48;5.70;;;;;;;3.77;100.00;92681.22;5037788;28;20041;-83
2023/01/08 00:45:34;;;;;;;10.02;5.10;;;;;;;3.79;100.00;92679.16;5039032;28;20511;-84
2023/01/08 00:47:59;;;;;;;10.40;5.07;;;;;;;3.78;100.00;92672.41;5038510;28;20507;-82
2023/01/08 00:50:25;;;;;;;7.53;4.20;;;;;;;3.81;100.00;92674.53;5039189;28;20093;-82
2023/01/08 00:52:51;;;;;;;6.82;3.78;;;;;;;3.82;100.00;92668.31;5021161;28;20089;-83
2023/01/08 00:55:16;;;;;;;5.90;3.80;;;;;;;3.84;100.00;92670.69;5020381;28;20037;-83
2023/01/08 00:57:42;;;;;;;6.88;3.38;;;;;;;3.85;100.00;92661.88;5039008;28;20488;-84
2023/01/08 01:00:13;;;;;;;6.30;3.58;;;;;;;3.87;100.00;92660.63;5020406;28;20068;-83
2023/01/08 01:02:39;;;;;;;8.15;3.75;;;;;;;3.88;100.00;92669.97;5037287;28;20048;-81
2023/01/08 01:05:06;;;;;;;5.95;3.60;;;;;;;3.90;100.00;92667.91;5016694;28;20041;-83
2023/01/08 01:07:35;;;;;;;5.82;3.30;;;;;;;3.88;100.00;92657.00;5018230;28;20018;-84
2023/01/08 01:10:01;;;;;;;4.85;2.85;;;;;;;3.94;100.00;92660.44;5018178;28;20518;-84
2023/01/08 01:12:27;;;;;;;4.53;2.70;;;;;;;3.94;100.00;92656.06;5036427;28;20041;-81
2023/01/08 01:14:53;;;;;;;6.75;2.50;;;;;;;3.95;100.00;92652.44;5037746;28;20041;-84
2023/01/08 01:17:18;;;;;;;4.90;2.58;;;;;;;3.96;100.00;92654.00;5037858;28;20076;-84
2023/01/08 01:19:44;;;;;;;6.38;3.10;;;;;;;3.99;100.00;92662.31;5036405;28;20035;-83
2023/01/08 01:22:11;;;;;;;5.60;2.83;;;;;;;3.97;100.00;92649.59;5035683;28;20044;-83
2023/01/08 01:24:36;;;;;;;4.43;2.80;;;;;;;4.00;100.00;92653.50;5038529;28;20065;-83
2023/01/08 01:27:02;;;;;;;5.38;2.72;;;;;;;4.04;100.00;92652.78;5020043;28;20092;-82
2023/01/08 01:29:27;;;;;;;5.63;3.10;;;;;;;4.07;100.00;92651.53;5036248;28;20118;-84
2023/01/08 01:31:56;;;;;;;5.18;2.85;;;;;;;4.07;100.00;92654.09;5035810;28;20037;-82
2023/01/08 01:34:22;;;;;;;4.85;2.80;;;;;;;4.14;100.00;92659.88;5036780;28;20052;-84
2023/01/08 01:36:47;;;;;;;6.13;3.08;;;;;;;4.13;100.00;92658.34;5019038;28;20050;-82
2023/01/08 01:39:13;;;;;;;7.05;3.55;;;;;;;4.22;100.00;92651.69;5036281;28;20037;-82
2023/01/08 01:41:44;;;;;;;7.55;3.70;;;;;;;4.28;100.00;92649.94;5036811;28;20061;-82
2023/01/08 01:44:36;;;;;;;7.00;3.97;;;;;;;4.28;100.00;92639.56;5036806;28;20069;-83
2023/01/08 01:47:27;;;;;;;7.40;3.70;;;;;;;4.32;100.00;92646.63;5035520;28;20556;-84
2023/01/08 01:50:13;;;;;;;7.20;3.65;;;;;;;4.28;100.00;92642.97;5035521;28;20061;-82
2023/01/08 01:52:45;;;;;;;18.70;9.95;;;;;;;4.08;100.00;92624.59;5037397;28;20029;-82
2023/01/08 01:55:13;;;;;;;15.05;7.45;;;;;;;4.06;100.00;92634.41;5035804;28;20098;-82
2023/01/08 01:57:39;;;;;;;11.40;6.13;;;;;;;4.05;100.00;92631.03;5037231;28;20036;-82
2023/01/08 02:00:08;;;;;;;8.45;4.07;;;;;;;4.04;100.00;92639.84;5015674;28;20084;-83
2023/01/08 02:02:40;;;;;;;10.52;4.07;;;;;;;4.06;100.00;92624.06;5017151;28;20041;-82
2023/01/08 02:05:07;;;;;;;7.60;4.25;;;;;;;4.07;100.00;92630.78;5015874;28;20034;-82
2023/01/08 02:07:52;;;;;;;8.23;4.10;;;;;;;4.10;100.00;92622.56;5016432;28;20025;-84
2023/01/08 02:10:21;;;;;;;6.43;3.90;;;;;;;4.33;100.00;92617.09;5019876;28;20052;-84
2023/01/08 02:12:59;;;;;;;16.15;9.05;;;;;;;4.09;100.00;92610.63;5034815;28;20116;-84
2023/01/08 02:15:53;;;;;;;14.40;7.85;;;;;;;4.02;100.00;92612.63;5036053;28;20088;-83
2023/01/08 02:18:28;;;;;;;14.40;7.95;;;;;;;3.99;100.00;92618.28;5035284;28;20041;-84
2023/01/08 02:21:01;;;;;;;20.88;10.52;;;;;;;4.19;100.00;92628.88;5034830;28;20030;-83
2023/01/08 02:23:27;;;;;;;23.33;13.43;;;;;;;3.96;100.00;92635.06;5025620;28;20049;-82
2023/01/08 02:26:14;;;;;;;26.13;13.75;;;;;;;3.87;100.00;92645.09;5036740;28;20026;-83
2023/01/08 02:29:13;;;;;;;23.30;12.20;;;;;;;3.82;100.00;92637.25;5018482;28;20041;-83
2023/01/08 02:31:41;;;;;;;16.88;9.30;;;;;;;3.78;100.00;92636.16;5032208;28;20045;-82
2023/01/08 02:34:07;;;;;;;15.63;8.20;;;;;;;3.86;100.00;92632.38;5017993;28;20044;-81
2023/01/08 02:36:33;;;;;;;11.25;6.15;;;;;;;3.87;100.00;92633.94;5017256;28;20025;-84
2023/01/08 02:39:15;;;;;;;13.05;6.63;;;;;;;3.88;100.00;92641.47;5035082;28;20095;-84
2023/01/08 02:41:43;;;;;;;10.00;5.93;;;;;;;3.90;100.00;92638.66;5050653;28;20037;-83
2023/01/08 02:44:16;;;;;;;10.93;5.45;;;;;;;3.88;100.00;92631.09;5034831;28;20030;-82
2023/01/08 02:46:41;;;;;;;;;;;;;;;3.91;100.00;92635.78;5034949;28;20038;-83
2023/01/08 02:49:11;;;;;;;14.52;7.38;;;;;;;3.99;100.00;92639.00;5033776;28;19967;-83
2023/01/08 02:51:48;;;;;;;24.60;12.93;;;;;;;3.79;100.00;92631.78;5035717;28;20044;-83
2023/01/08 02:54:18;;;;;;;23.63;12.48;;;;;;;3.74;100.00;92640.25;5035089;28;20052;-83
2023/01/08 02:56:52;;;;;;;31.27;14.80;;;;;;;3.48;100.00;92629.56;5017258;28;20527;-83
2023/01/08 02:59:19;;;;;;;31.52;16.05;;;;;;;3.31;100.00;92634.78;5033492;28;20037;-83
2023/01/08 03:01:45;;;;;;;31.35;16.67;;;;;;;3.26;100.00;92628.75;5032784;28;20041;-83
2023/01/08 03:04:22;;;;;;;26.55;14.20;;;;;;;3.23;100.00;92630.00;5032677;28;20041;-82
2023/01/08 03:06:49;;;;;;;26.38;13.40;;;;;;;3.25;100.00;92632.34;5034832;28;20106;-83
2023/01/08 03:09:16;;;;;;;27.15;13.77;;;;;;;3.22;100.00;92620.69;5033267;28;20045;-82
2023/01/08 03:12:15;;;;;;;26.40;13.15;;;;;;;3.25;100.00;92619.41;5034374;28;20025;-81
2023/01/08 03:15:00;;;;;;;22.25;11.57;;;;;;;3.25;100.00;92614.25;5035262;28;20511;-83
2023/01/08 03:17:31;;;;;;;20.15;10.75;;;;;;;3.22;100.00;92602.56;5035042;28;20087;-82
2023/01/08 03:20:03;;;;;;;21.27;11.70;;;;;;;3.20;100.00;92594.25;5034362;28;20033;-83
2023/01/08 03:22:30;;;;;;;;;;;;;;;3.23;100.00;92593.00;5034363;28;20041;-83
2023/01/08 03:24:58;;;;;;;11.90;7.75;;;;;;;3.61;100.00;92583.66;5017510;28;19963;-83
2023/01/08 03:27:28;;;;;;;24.75;13.15;;;;;;;3.38;100.00;92584.66;5035135;28;20029;-83
2023/01/08 03:29:57;;;;;;;21.27;13.15;;;;;;;3.23;100.00;92587.81;5033812;28;20038;-82
2023/01/08 03:32:23;;;;;;;26.35;14.52;;;;;;;3.12;100.00;92569.56;5035052;28;20040;-83
2023/01/08 03:35:27;;;;;;;24.50;13.35;;;;;;;3.20;100.00;92572.75;5034172;28;20381;-82
2023/01/08 03:38:03;;;;;;;26.63;13.82;;;;;;;3.19;100.00;92573.78;5033442;28;20506;-83
2023/01/08 03:40:35;;;;;;;18.55;9.88;;;;;;;3.26;100.00;92556.28;5033328;28;20040;-83
2023/01/08 03:43:01;;;;;;;15.88;8.55;;;;;;;3.23;100.00;92567.13;5033725;28;20044;-83
2023/01/08 03:45:30;;;;;;;18.35;8.88;;;;;;;3.24;100.00;92553.16;5033174;28;20050;-81
2023/01/08 03:47:57;;;;;;;17.67;8.75;;;;;;;3.22;100.00;92545.66;5029269;28;20034;-81
2023/01/08 03:50:27;;;;;;;18.30;9.35;;;;;;;3.30;100.00;92553.00;5014760;28;20120;-81
2023/01/08 03:52:53;;;;;;;17.15;9.13;;;;;;;3.32;100.00;92555.34;5014099;28;20103;-83
2023/01/08 03:55:20;;;;;;;17.80;9.00;;;;;;;3.32;100.00;92550.16;5019750;28;20034;-81
2023/01/08 03:57:46;;;;;;;17.92;9.07;;;;;;;3.24;100.00;92532.47;5034738;28;20072;-83
2023/01/08 04:00:12;;;;;;;17.10;9.77;;;;;;;3.31;100.00;92525.31;5033333;28;20034;-83
2023/01/08 04:02:40;;;;;;;17.90;10.15;;;;;;;3.25;100.00;92521.09;5018154;28;20037;-83
2023/01/08 04:05:08;;;;;;;17.83;9.35;;;;;;;3.26;100.00;92522.66;5018369;28;20065;-83
2023/01/08 04:07:33;;;;;;;18.92;10.82;;;;;;;3.23;100.00;92513.56;5022032;28;20397;-82
2023/01/08 04:10:36;;;;;;;14.98;8.63;;;;;;;3.27;100.00;92517.25;5021935;28;20104;-82
2023/01/08 04:13:02;;;;;;;;;;;;;;;3.28;100.00;92520.63;5039904;28;20060;-83
2023/01/08 04:15:27;;;;;;;18.95;9.93;;;;;;;3.25;100.00;92523.69;5038472;28;19913;-82
2023/01/08 04:17:55;;;;;;;15.45;9.10;;;;;;;3.22;100.00;92519.78;5039916;28;20065;-83
2023/01/08 04:20:21;;;;;;;16.95;9.77;;;;;;;3.24;100.00;92532.47;5039223;28;20468;-83
2023/01/08 04:22:46;;;;;;;16.25;8.77;;;;;;;3.23;100.00;92536.09;5039729;28;20112;-83
2023/01/08 04:25:13;;;;;;;17.40;9.00;;;;;;;3.22;100.00;92524.97;5005287;28;20108;-83
2023/01/08 04:27:39;;;;;;;15.32;8.65;;;;;;;3.29;100.00;92535.13;5021471;28;20036;-83
2023/01/08 04:30:05;;;;;;;11.00;6.43;;;;;;;3.33;100.00;92531.03;5039268;28;20033;-83
2023/01/08 04:32:33;;;;;;;14.60;7.43;;;;;;;3.38;100.00;92527.72;5039577;28;20407;-82
2023/01/08 04:34:58;;;;;;;13.50;7.63;;;;;;;3.39;100.00;92526.72;5018766;28;20038;-83
2023/01/08 04:37:24;;;;;;;12.93;6.70;;;;;;;3.42;100.00;92524.41;5004918;28;20047;-81
2023/01/08 04:40:10;;;;;;;13.48;6.70;;;;;;;3.43;100.00;92525.97;5029231;28;20060;-83
2023/01/08 04:42:36;;;;;;;14.02;7.55;;;;;;;3.44;100.00;92524.94;5051539;28;20099;-81
2023/01/08 04:45:02;;;;;;;15.00;7.75;;;;;;;3.46;100.00;92516.94;5044741;28;20057;-83
2023/01/08 04:47:34;;;;;;;10.65;6.47;;;;;;;3.45;100.00;92508.41;5040834;28;20475;-83
2023/01/08 04:50:00;;;;;;;;;;;;;;;3.47;100.00;92506.38;5041027;28;20048;-82
2023/01/08 04:52:28;;;;;;;10.57;5.68;;;;;;;3.51;100.00;92512.63;5041389;28;19913;-82
2023/01/08 04:58:21;;;;;;;11.20;5.85;;;;;;;3.54;100.00;92501.78;5039137;28;20034;-82
2023/01/08 05:00:47;;;;;;;11.95;6.18;;;;;;;3.53;100.00;92505.41;5039999;28;20044;-83
2023/01/08 05:03:13;;;;;;;13.07;6.32;;;;;;;3.53;100.00;92505.41;5038936;28;20030;-83
2023/01/08 05:05:39;;;;;;;10.77;6.15;;;;;;;3.50;100.00;92494.75;5039967;28;20064;-83
2023/01/08 05:08:04;;;;;;;12.15;6.57;;;;;;;3.52;100.00;92492.69;5038799;28;20061;-83
2023/01/08 05:10:31;;;;;;;11.75;5.82;;;;;;;3.51;100.00;92491.91;5037944;28;20403;-83
2023/01/08 05:13:00;;;;;;;10.63;6.13;;;;;;;3.47;100.00;92477.91;5039381;28;20037;-83
2023/01/08 05:15:26;;;;;;;12.43;6.20;;;;;;;3.49;100.00;92481.03;5039611;28;20044;-83
2023/01/08 05:18:03;;;;;;;9.52;5.85;;;;;;;3.50;100.00;92485.16;5021387;28;20042;-83
2023/01/08 05:20:29;;;;;;;11.00;6.07;;;;;;;3.50;100.00;92482.56;5038864;28;20040;-83
2023/01/08 05:22:55;;;;;;;11.90;6.00;;;;;;;3.48;100.00;92470.91;5038238;28;20041;-83
2023/01/08 05:25:41;;;;;;;10.95;5.40;;;;;;;3.53;100.00;92476.94;5038227;28;20037;-83
2023/01/08 05:28:07;;;;;;;10.35;5.47;;;;;;;3.54;100.00;92475.13;5038111;28;20041;-83
2023/01/08 05:30:32;;;;;;;9.05;5.35;;;;;;;3.47;100.00;92457.19;5036910;28;20092;-83
2023/01/08 05:33:18;;;;;;;7.65;4.75;;;;;;;3.52;100.00;92462.41;5020693;28;20103;-83
2023/01/08 05:35:43;;;;;;;7.05;4.30;;;;;;;3.49;100.00;92462.91;5004265;28;20025;-83
2023/01/08 05:38:11;;;;;;;8.00;4.63;;;;;;;3.54;100.00;92465.53;5038195;28;20053;-84
2023/01/08 05:40:37;;;;;;;10.32;4.70;;;;;;;3.55;100.00;92461.91;5038529;28;20155;-83
2023/01/08 05:43:22;;;;;;;7.10;4.10;;;;;;;3.55;100.00;92456.75;5038120;28;20101;-83
2023/01/08 05:45:49;;;;;;;7.10;3.60;;;;;;;3.60;100.00;92463.78;5020261;28;20064;-83
2023/01/08 05:48:14;;;;;;;7.90;4.07;;;;;;;3.61;100.00;92469.75;5037331;28;20044;-83
2023/01/08 05:50:40;;;;;;;8.75;3.67;;;;;;;3.59;100.00;92474.41;5019763;28;20491;-82
2023/01/08 05:53:25;;;;;;;21.63;11.10;;;;;;;3.67;100.00;92479.13;5036551;28;20468;-83
2023/01/08 05:55:51;;;;;;;22.27;10.40;;;;;;;3.50;100.00;92464.47;5036231;28;20033;-83
2023/01/08 05:58:18;;;;;;;19.45;10.07;;;;;;;3.47;100.00;92475.31;5036653;28;20033;-81
2023/01/08 06:00:43;;;;;;;14.48;7.72;;;;;;;3.47;100.00;92470.13;5038177;28;20037;-82
2023/01/08 06:03:09;;;;;;;10.70;6.10;;;;;;;3.44;100.00;92465.41;5038402;28;20140;-82
2023/01/08 06:05:35;;;;;;;10.32;5.80;;;;;;;3.49;100.00;92467.28;5046183;28;20072;-81
2023/01/08 06:08:01;;;;;;;13.13;7.80;;;;;;;3.51;100.00;92466.03;5049993;28;20072;-83
2023/01/08 06:10:27;;;;;;;16.50;8.10;;;;;;;3.50;100.00;92461.88;5049307;28;20033;-83
2023/01/08 06:12:53;;;;;;;18.35;9.70;;;;;;;3.43;100.00;92458.69;5039173;28;20037;-84
2023/01/08 06:15:18;;;;;;;15.80;8.82;;;;;;;3.45;100.00;92463.63;5039132;28;20049;-82
2023/01/08 06:17:44;;;;;;;15.15;8.25;;;;;;;3.45;100.00;92467.00;5037939;28;20033;-83
2023/01/08 06:20:10;;;;;;;19.58;9.70;;;;;;;3.39;100.00;92457.63;5037049;28;20140;-83
2023/01/08 06:23:14;;;;;;;20.77;11.70;;;;;;;3.37;100.00;92459.66;5038791;28;20038;-83
2023/01/08 06:25:39;;;;;;;20.25;10.85;;;;;;;3.33;100.00;92454.19;5038364;28;20044;-83
2023/01/08 06:28:05;;;;;;;17.70;9.35;;;;;;;3.37;100.00;92470.00;5019817;28;20476;-83
2023/01/08 06:30:31;;;;;;;92.78;17.02;;;;;;;3.33;100.00;92481.84;5018565;28;20041;-84
2023/01/08 06:32:58;;;;;;;455.20;25.52;;;;;;;3.16;100.00;92476.75;5016327;28;20389;-84
2023/01/08 06:35:24;;;;;;;28.25;14.10;;;;;;;3.05;100.00;92473.25;5000174;28;20381;-82
2023/01/08 06:38:09;;;;;;;26.60;14.88;;;;;;;2.94;100.00;92471.56;5030239;28;20107;-84
2023/01/08 06:40:34;;;;;;;29.92;15.20;;;;;;;2.94;100.00;92481.13;5036390;28;20083;-83
2023/01/08 06:43:02;;;;;;;32.92;15.93;;;;;;;2.90;100.00;92467.88;5036740;28;20045;-84
2023/01/08 06:45:29;;;;;;;29.33;15.15;;;;;;;2.88;100.00;92469.94;5034789;28;20053;-83
2023/01/08 06:48:04;;;;;;;23.98;12.77;;;;;;;2.98;100.00;92464.91;5036602;28;20046;-83
2023/01/08 06:50:32;;;;;;;24.23;13.70;;;;;;;2.85;100.00;92447.16;5036469;28;20061;-83
2023/01/08 06:56:21;;;;;;;25.70;13.73;;;;;;;2.88;100.00;92452.63;5037510;28;20117;-83
2023/01/08 06:58:47;;;;;;;26.42;13.30;;;;;;;2.90;100.00;92447.19;5020055;28;20107;-83
2023/01/08 07:05:07;;;;;;;19.30;10.50;;;;;;;3.00;100.00;92447.34;5037458;28;20071;-83
2023/01/08 07:08:12;;;;;;;20.33;11.60;;;;;;;3.03;100.00;92449.44;5036094;28;20525;-83
2023/01/08 07:10:38;;;;;;;23.27;12.77;;;;;;;3.03;100.00;92448.66;5037228;28;20045;-83
2023/01/08 07:13:04;;;;;;;23.60;12.30;;;;;;;3.05;100.00;92451.78;5037798;28;20483;-82
2023/01/08 07:16:09;;;;;;;22.98;12.25;;;;;;;3.07;100.00;92440.19;5019873;28;20034;-83
2023/01/08 07:18:35;;;;;;;23.63;12.85;;;;;;;3.08;100.00;92446.91;5035538;28;20038;-83
2023/01/08 07:21:22;;;;;;;24.05;12.45;;;;;;;3.12;100.00;92448.00;5019544;28;20026;-82
2023/01/08 07:23:51;;;;;;;23.65;12.30;;;;;;;3.05;100.00;92446.63;5035202;28;20038;-82
2023/01/08 07:26:35;;;;;;;24.13;13.73;;;;;;;3.05;100.00;92457.75;5018977;28;20041;-83
2023/01/08 07:29:01;;;;;;;30.02;14.82;;;;;;;3.05;100.00;92441.44;5031676;28;20033;-81
2023/01/08 07:31:26;;;;;;;27.77;14.95;;;;;;;3.04;100.00;92445.84;5036694;28;20477;-80
2023/01/08 07:33:53;;;;;;;23.10;11.93;;;;;;;3.08;100.00;92446.91;5035502;28;20040;-78
2023/01/08 07:36:21;;;;;;;22.48;12.27;;;;;;;3.11;100.00;92451.63;5033855;28;20562;-78
2023/01/08 07:38:49;;;;;;;29.13;13.57;;;;;;;3.15;100.00;92449.31;5033146;28;20044;-78
2023/01/08 07:41:16;;;;;;;21.70;12.07;;;;;;;3.16;100.00;92448.31;5035478;28;20052;-78
2023/01/08 07:43:42;;;;;;;17.80;10.15;;;;;;;3.17;100.00;92442.09;5037354;28;20399;-78
2023/01/08 07:46:08;;;;;;;19.67;10.15;;;;;;;3.22;100.00;92431.03;5017324;28;20049;-78
2023/01/08 07:48:33;;;;;;;21.02;10.65;;;;;;;3.21;100.00;92434.66;5035629;28;20462;-79
2023/01/08 07:51:04;;;;;;;21.15;11.50;;;;;;;3.19;100.00;92434.09;5034326;28;20034;-76
2023/01/08 07:53:30;;;;;;;20.92;11.68;;;;;;;3.21;100.00;92425.06;5034522;28;20049;-77
2023/01/08 07:56:00;;;;;;;19.92;10.18;;;;;;;3.23;100.00;92432.59;5035683;28;20025;-79
2023/01/08 07:58:26;;;;;;;22.60;11.32;;;;;;;3.42;100.00;92423.47;5034836;28;20038;-78
2023/01/08 08:00:52;;;;;;;19.95;10.48;;;;;;;3.42;100.00;92418.31;5035369;28;20399;-78
2023/01/08 08:03:17;;;;;;;23.15;11.38;;;;;;;3.34;100.00;92418.75;5036101;28;20029;-79
2023/01/08 08:05:43;;;;;;;24.15;13.57;;;;;;;3.23;100.00;92433.38;5035628;28;20045;-78
2023/01/08 08:08:10;;;;;;;24.73;13.57;;;;;;;3.17;100.00;92436.16;5018172;28;20068;-79
2023/01/08 08:10:37;;;;;;;22.00;12.10;;;;;;;3.16;100.00;92439.78;5036236;28;20434;-79
2023/01/08 08:13:02;;;;;;;21.15;11.60;;;;;;;3.17;100.00;92446.50;5036246;28;20037;-78
2023/01/08 08:15:28;;;;;;;18.50;10.73;;;;;;;3.21;100.00;92445.00;5035898;28;20060;-78
2023/01/08 08:17:53;;;;;;;18.67;10.57;;;;;;;3.25;100.00;92439.09;5002822;28;20406;-79
2023/01/08 08:20:19;;;;;;;18.25;9.52;;;;;;;3.24;100.00;92427.19;5035651;28;20037;-78
2023/01/08 08:22:44;;;;;;;18.83;9.57;;;;;;;3.31;100.00;92422.59;5034880;28;20039;-78
2023/01/08 08:25:13;;;;;;;19.45;9.40;;;;;;;3.39;100.00;92413.63;5036123;28;20112;-78
2023/01/08 08:27:40;;;;;;;12.23;6.25;;;;;;;3.66;100.00;92420.63;5036223;28;20084;-78
2023/01/08 08:30:06;;;;;;;12.32;6.72;;;;;;;3.75;100.00;92421.72;5035085;28;20038;-78
2023/01/08 08:32:32;;;;;;;13.20;7.00;;;;;;;3.69;100.00;92417.53;5036290;28;20029;-78
2023/01/08 08:34:59;;;;;;;12.75;6.55;;;;;;;3.74;100.00;92420.19;5037313;28;20068;-78
2023/01/08 08:37:24;;;;;;;24.77;10.30;;;;;;;3.93;100.00;92411.00;5035268;28;20041;-78
2023/01/08 08:39:50;;;;;;;130.23;15.95;;;;;;;3.69;100.00;92409.75;5036403;28;20053;-78
2023/01/08 08:42:16;;;;;;;772.75;29.95;;;;;;;3.37;100.00;92413.09;5019511;28;20034;-79
2023/01/08 08:44:41;;;;;;;579.75;26.02;;;;;;;3.02;100.00;92403.16;5036306;28;20419;-79
2023/01/08 08:47:10;;;;;;;636.00;29.40;;;;;;;2.93;100.00;92392.44;5036734;28;20060;-78
2023/01/08 08:49:35;;;;;;;52.13;19.50;;;;;;;2.85;100.00;92379.94;5035883;28;20040;-76
2023/01/08 08:52:02;;;;;;;30.35;11.05;;;;;;;3.18;100.00;92401.50;5014449;28;20029;-79
2023/01/08 08:54:28;;;;;;;351.70;23.50;;;;;;;3.07;100.00;92400.63;5015438;28;20130;-79
2023/01/08 08:56:55;;;;;;;95.10;20.00;;;;;;;2.91;100.00;92399.66;4999008;28;20038;-79
2023/01/08 08:59:21;;;;;;;35.20;18.15;;;;;;;2.85;100.00;92395.44;5013847;28;20056;-79
2023/01/08 09:01:47;;;;;;;32.15;16.63;;;;;;;2.89;100.00;92399.13;5038455;28;20491;-79
2023/01/08 09:04:12;;;;;;;28.48;16.05;;;;;;;2.90;100.00;92390.31;5035799;28;20046;-79
2023/01/08 09:06:38;;;;;;;29.88;15.40;;;;;;;2.94;100.00;92383.66;5034725;28;20059;-77
2023/01/08 09:09:04;;;;;;;27.80;15.05;;;;;;;3.00;100.00;92387.88;5019234;28;20388;-76
2023/01/08 09:11:30;;;;;;;29.63;16.15;;;;;;;3.00;100.00;92377.53;5033812;28;20125;-78
2023/01/08 09:13:56;;;;;;;28.95;15.75;;;;;;;3.08;100.00;92386.66;5035856;28;20060;-78
2023/01/08 09:16:21;;;;;;;27.98;14.18;;;;;;;3.12;100.00;92388.50;5034110;28;20553;-76
2023/01/08 09:18:48;;;;;;;26.05;14.95;;;;;;;3.17;100.00;92392.94;5034572;28;20049;-77
2023/01/08 09:21:15;;;;;;;31.50;16.15;;;;;;;3.19;100.00;92383.13;5034695;28;20037;-77
2023/01/08 09:23:40;;;;;;;28.55;15.00;;;;;;;3.24;100.00;92388.38;5048989;28;20490;-77
2023/01/08 09:26:06;;;;;;;23.30;12.90;;;;;;;3.27;100.00;92387.13;5035960;28;20045;-77
2023/01/08 09:28:32;;;;;;;19.92;11.25;;;;;;;3.33;100.00;92386.13;5034510;28;20519;-78
2023/01/08 09:31:04;;;;;;;21.30;11.43;;;;;;;3.38;100.00;92393.97;5039068;28;20037;-78
2023/01/08 09:33:30;;;;;;;23.27;12.43;;;;;;;3.40;100.00;92376.38;5039216;28;20120;-78
2023/01/08 09:35:55;;;;;;;23.23;13.82;;;;;;;3.45;100.00;92365.31;5040228;28;20150;-78
2023/01/08 09:38:21;;;;;;;26.05;14.18;;;;;;;3.50;100.00;92357.56;5041357;28;20048;-78
2023/01/08 09:40:53;;;;;;;19.00;10.93;;;;;;;3.54;100.00;92367.19;5041601;28;20053;-79
2023/01/08 09:43:21;;;;;;;28.42;14.32;;;;;;;3.62;100.00;92362.59;5039746;28;20243;-79
2023/01/08 09:45:54;;;;;;;32.58;16.30;;;;;;;3.47;100.00;92371.00;5041267;28;20156;-79
2023/01/08 09:48:24;;;;;;;29.60;14.82;;;;;;;3.36;100.00;92372.72;5040792;28;20071;-79
2023/01/08 09:50:50;;;;;;;123.07;16.98;;;;;;;3.31;100.00;92368.28;5042154;28;20029;-79
2023/01/08 09:53:17;;;;;;;202.52;18.00;;;;;;;3.17;100.00;92361.13;5039362;28;20203;-77
2023/01/08 09:55:45;;;;;;;27.85;14.82;;;;;;;3.11;100.00;92363.69;5041657;28;20033;-78
2023/01/08 09:58:28;;;;;;;26.25;13.77;;;;;;;3.23;100.00;92355.00;5020879;28;20044;-78
2023/01/08 10:00:54;;;;;;;34.42;15.45;;;;;;;3.06;100.00;92345.53;5038786;28;20155;-79
2023/01/08 10:03:27;;;;;;;34.53;16.02;;;;;;;2.99;100.00;92341.56;5036453;28;20049;-79
2023/01/08 10:05:53;;;;;;;32.10;15.65;;;;;;;3.01;100.00;92345.44;5038436;28;20410;-78
2023/01/08 10:08:19;;;;;;;36.38;18.08;;;;;;;3.02;100.00;92347.03;5039293;28;20041;-78
2023/01/08 10:10:45;;;;;;;32.08;17.48;;;;;;;3.02;100.00;92349.63;5038590;28;20053;-78
2023/01/08 10:13:11;;;;;;;66.07;10.60;;;;;;;3.23;100.00;92352.41;5040096;28;20033;-79
2023/01/08 10:15:39;;;;;;;221.27;15.85;;;;;;;3.16;100.00;92357.00;5038603;28;20492;-77
2023/01/08 10:18:10;;;;;;;126.47;15.50;;;;;;;3.04;100.00;92352.75;5038695;28;20068;-77
2023/01/08 10:20:36;;;;;;;37.42;13.32;;;;;;;2.97;100.00;92344.38;5048127;28;20503;-78
2023/01/08 10:23:16;;;;;;;28.67;13.43;;;;;;;2.90;100.00;92338.59;5052346;28;20124;-79
2023/01/08 10:26:00;;;;;;;21.67;13.45;;;;;;;2.86;100.00;92329.78;5028857;28;20072;-79
2023/01/08 10:28:34;;;;;;;18.63;11.80;;;;;;;2.90;100.00;92331.66;5023537;28;20037;-79
2023/01/08 10:31:14;;;;;;;24.67;13.65;;;;;;;2.95;100.00;92325.75;5041669;28;20029;-79
2023/01/08 10:33:42;;;;;;;23.80;12.43;;;;;;;3.04;100.00;92315.72;5038897;28;20041;-79
2023/01/08 10:36:10;;;;;;;19.85;11.48;;;;;;;3.11;100.00;92317.13;5040514;28;20037;-79
2023/01/08 10:38:41;;;;;;;19.95;11.18;;;;;;;3.16;100.00;92311.22;5041699;28;20517;-79
2023/01/08 10:41:12;;;;;;;23.55;11.75;;;;;;;3.23;100.00;92305.84;5040372;28;20037;-80
2023/01/08 10:43:46;;;;;;;20.50;11.57;;;;;;;3.30;100.00;92298.66;5038335;28;20037;-79
2023/01/08 10:46:22;;;;;;;19.25;11.75;;;;;;;3.37;100.00;92294.06;5038486;28;20132;-80
2023/01/08 10:48:52;;;;;;;549.40;22.08;;;;;;;3.36;100.00;92289.91;5040244;28;20037;-80
2023/01/08 10:51:23;;;;;;;535.38;19.60;;;;;;;3.29;100.00;92286.75;5040162;28;20120;-79
2023/01/08 10:53:49;;;;;;;352.23;14.57;;;;;;;3.38;100.00;92292.25;5038598;28;20140;-79
2023/01/08 10:56:25;;;;;;;481.48;17.42;;;;;;;3.27;100.00;92293.97;5038900;28;20103;-80
2023/01/08 10:58:51;;;;;;;390.42;15.55;;;;;;;3.02;100.00;92297.13;5041272;28;20109;-79
2023/01/08 11:01:27;;;;;;;386.85;15.65;;;;;;;3.08;100.00;92296.91;5041808;28;20042;-79
2023/01/08 11:03:57;;;;;;;602.40;20.40;;;;;;;2.95;100.00;92286.97;5037031;28;20044;-79
2023/01/08 11:06:26;;;;;;;431.17;25.00;;;;;;;2.83;100.00;92291.47;5039210;28;20034;-79
2023/01/08 11:09:12;;;;;;;41.55;10.93;;;;;;;2.91;100.00;92296.22;5037016;28;20052;-78
2023/01/08 11:11:38;;;;;;;96.15;9.57;;;;;;;2.93;100.00;92294.19;5040296;28;20025;-79
2023/01/08 11:14:21;;;;;;;155.32;10.60;;;;;;;2.93;100.00;92289.00;5040206;28;20048;-80
2023/01/08 11:16:47;;;;;;;71.93;8.60;;;;;;;2.93;100.00;92278.66;5039090;28;20105;-81
2023/01/08 11:19:21;;;;;;;57.58;11.73;;;;;;;2.94;100.00;92280.22;5043781;28;20172;-81
2023/01/08 11:22:21;;;;;;;29.77;9.85;;;;;;;2.95;100.00;92286.16;5039031;28;20048;-79
2023/01/08 11:24:48;;;;;;;18.63;10.48;;;;;;;2.94;100.00;92274.28;5034202;28;20030;-80
2023/01/08 11:27:36;;;;;;;15.48;7.65;;;;;;;2.98;100.00;92270.19;5035357;28;20029;-81
2023/01/08 11:30:09;;;;;;;13.18;7.68;;;;;;;3.04;100.00;92276.94;5034546;28;20045;-81
2023/01/08 11:33:00;;;;;;;25.40;13.38;;;;;;;3.11;100.00;92280.91;5036994;28;20037;-81
2023/01/08 11:35:38;;;;;;;40.45;20.33;;;;;;;3.18;100.00;92278.13;5027039;28;20064;-80
2023/01/08 11:38:05;;;;;;;24.15;12.07;;;;;;;3.23;100.00;92277.38;5037075;28;20067;-80
2023/01/08 11:40:49;;;;;;;17.98;10.00;;;;;;;3.29;100.00;92279.78;5039989;28;20300;-82
2023/01/08 11:43:36;;;;;;;12.95;7.57;;;;;;;3.37;100.00;92278.53;5048627;28;20108;-83
2023/01/08 11:46:07;;;;;;;14.30;7.45;;;;;;;3.39;100.00;92270.53;5051893;28;20057;-81
2023/01/08 11:48:39;;;;;;;13.18;6.60;;;;;;;3.47;100.00;92275.25;5047548;28;20025;-82